sensor_id;sensor_type;location;lat;lon;timestamp;temperature;humidity
76750;DHT22;66447;35.844;14.468;2023-04-28T00:04:06;15.33;118.99
76750;DHT22;66447;35.844;14.468;2023-04-28T00:19:07;15.43;118.99
76750;DHT22;66447;35.844;14.468;2023-04-28T00:34:08;15.01;118.99
76750;DHT22;66447;35.844;14.468;2023-04-28T00:49:14;15.10;118.99
76750;DHT22;66447;35.844;14.468;2023-04-28T01:04:19;15.19;118.99
76750;DHT22;66447;35.844;14.468;2023-04-28T01:19:21;15.16;118.99
76750;DHT22;66447;35.844;14.468;2023-04-28T01:34:22;15.24;118.99
76750;DHT22;66447;35.844;14.468;2023-04-28T01:49:24;15.19;118.99
76750;DHT22;66447;35.844;14.468;2023-04-28T02:04:25;15.24;118.99
76750;DHT22;66447;35.844;14.468;2023-04-28T02:19:26;14.37;118.99
76750;DHT22;66447;35.844;14.468;2023-04-28T02:34:27;14.51;118.99
76750;DHT22;66447;35.844;14.468;2023-04-28T02:49:28;14.59;118.99
76750;DHT22;66447;35.844;14.468;2023-04-28T03:04:29;14.58;118.99
76750;DHT22;66447;35.844;14.468;2023-04-28T03:19:30;14.58;118.99
76750;DHT22;66447;35.844;14.468;2023-04-28T03:34:32;14.77;118.99
76750;DHT22;66447;35.844;14.468;2023-04-28T03:49:34;14.70;118.99
76750;DHT22;66447;35.844;14.468;2023-04-28T04:04:35;14.91;118.99
76750;DHT22;66447;35.844;14.468;2023-04-28T04:19:36;14.79;118.99
76750;DHT22;66447;35.844;14.468;2023-04-28T04:34:37;14.81;118.99
76750;DHT22;66447;35.844;14.468;2023-04-28T04:49:39;15.89;118.99
76750;DHT22;66447;35.844;14.468;2023-04-28T05:04:43;16.64;118.99
76750;DHT22;66447;35.844;14.468;2023-04-28T05:19:47;17.40;118.99
76750;DHT22;66447;35.844;14.468;2023-04-28T05:34:48;17.91;118.99
76750;DHT22;66447;35.844;14.468;2023-04-28T05:49:49;18.12;118.99
76750;DHT22;66447;35.844;14.468;2023-04-28T06:04:50;18.49;118.99
76750;DHT22;66447;35.844;14.468;2023-04-28T06:19:52;17.99;118.99
76750;DHT22;66447;35.844;14.468;2023-04-28T06:34:54;18.83;118.99
76750;DHT22;66447;35.844;14.468;2023-04-28T06:49:56;19.14;118.99
76750;DHT22;66447;35.844;14.468;2023-04-28T07:04:57;18.87;118.99
76750;DHT22;66447;35.844;14.468;2023-04-28T07:19:58;19.38;118.99
76750;DHT22;66447;35.844;14.468;2023-04-28T07:34:59;19.15;118.99
76750;DHT22;66447;35.844;14.468;2023-04-28T07:50:02;19.21;118.99
76750;DHT22;66447;35.844;14.468;2023-04-28T08:05:05;19.60;118.99
76750;DHT22;66447;35.844;14.468;2023-04-28T08:20:09;18.73;118.99
76750;DHT22;66447;35.844;14.468;2023-04-28T08:35:10;19.98;118.99
76750;DHT22;66447;35.844;14.468;2023-04-28T08:50:13;18.99;118.99
76750;DHT22;66447;35.844;14.468;2023-04-28T09:05:14;18.91;118.99
76750;DHT22;66447;35.844;14.468;2023-04-28T09:20:22;20.36;118.99
76750;DHT22;66447;35.844;14.468;2023-04-28T09:35:41;19.28;118.99
76750;DHT22;66447;35.844;14.468;2023-04-28T09:50:43;19.35;118.99
76750;DHT22;66447;35.844;14.468;2023-04-28T10:05:47;19.76;118.99
76750;DHT22;66447;35.844;14.468;2023-04-28T10:21:00;18.68;118.99
76750;DHT22;66447;35.844;14.468;2023-04-28T10:36:05;20.45;118.99
76750;DHT22;66447;35.844;14.468;2023-04-28T11:21:29;19.61;118.99
76750;DHT22;66447;35.844;14.468;2023-04-28T11:36:36;19.20;118.99
76750;DHT22;66447;35.844;14.468;2023-04-28T11:51:38;19.31;118.99
76750;DHT22;66447;35.844;14.468;2023-04-28T12:06:40;18.99;118.99
76750;DHT22;66447;35.844;14.468;2023-04-28T12:21:41;18.80;118.99
76750;DHT22;66447;35.844;14.468;2023-04-28T12:36:43;18.49;118.99
76750;DHT22;66447;35.844;14.468;2023-04-28T12:51:48;18.63;118.99
76750;DHT22;66447;35.844;14.468;2023-04-28T13:06:49;19.65;118.99
76750;DHT22;66447;35.844;14.468;2023-04-28T13:21:51;19.53;118.99
76750;DHT22;66447;35.844;14.468;2023-04-28T13:36:53;18.91;118.99
76750;DHT22;66447;35.844;14.468;2023-04-28T13:51:54;19.53;118.99
76750;DHT22;66447;35.844;14.468;2023-04-28T14:06:56;19.39;118.99
76750;DHT22;66447;35.844;14.468;2023-04-28T14:21:58;17.55;118.99
76750;DHT22;66447;35.844;14.468;2023-04-28T14:36:59;17.52;118.99
76750;DHT22;66447;35.844;14.468;2023-04-28T14:52:01;17.95;118.99
76750;DHT22;66447;35.844;14.468;2023-04-28T15:07:02;17.82;118.99
76750;DHT22;66447;35.844;14.468;2023-04-28T15:22:04;17.66;118.99
76750;DHT22;66447;35.844;14.468;2023-04-28T15:52:39;17.06;118.99
76750;DHT22;66447;35.844;14.468;2023-04-28T16:07:40;17.11;118.99
76750;DHT22;66447;35.844;14.468;2023-04-28T16:22:41;17.06;118.99
76750;DHT22;66447;35.844;14.468;2023-04-28T16:38:04;16.02;118.99
76750;DHT22;66447;35.844;14.468;2023-04-28T16:53:29;15.65;118.99
76750;DHT22;66447;35.844;14.468;2023-04-28T17:08:31;15.78;118.99
76750;DHT22;66447;35.844;14.468;2023-04-28T17:23:32;15.81;118.99
76750;DHT22;66447;35.844;14.468;2023-04-28T17:38:38;15.58;118.99
76750;DHT22;66447;35.844;14.468;2023-04-28T17:53:39;15.43;118.99
76750;DHT22;66447;35.844;14.468;2023-04-28T18:08:42;15.69;118.99
76750;DHT22;66447;35.844;14.468;2023-04-28T18:23:44;15.04;118.99
76750;DHT22;66447;35.844;14.468;2023-04-28T18:38:46;15.34;118.99
76750;DHT22;66447;35.844;14.468;2023-04-28T18:53:47;15.30;118.99
76750;DHT22;66447;35.844;14.468;2023-04-28T19:08:48;15.16;118.99
76750;DHT22;66447;35.844;14.468;2023-04-28T19:23:50;15.27;118.99
76750;DHT22;66447;35.844;14.468;2023-04-28T19:38:53;15.29;118.99
76750;DHT22;66447;35.844;14.468;2023-04-28T19:53:54;15.27;118.99
76750;DHT22;66447;35.844;14.468;2023-04-28T20:08:55;15.14;118.99
76750;DHT22;66447;35.844;14.468;2023-04-28T20:23:56;14.71;118.99
76750;DHT22;66447;35.844;14.468;2023-04-28T20:39:01;14.91;118.99
76750;DHT22;66447;35.844;14.468;2023-04-28T20:54:02;15.02;118.99
76750;DHT22;66447;35.844;14.468;2023-04-28T21:09:04;15.03;118.99
76750;DHT22;66447;35.844;14.468;2023-04-28T21:24:05;15.07;118.99
76750;DHT22;66447;35.844;14.468;2023-04-28T21:39:07;15.30;118.99
76750;DHT22;66447;35.844;14.468;2023-04-28T21:54:09;15.07;118.99
76750;DHT22;66447;35.844;14.468;2023-04-28T22:09:10;14.96;118.99
76750;DHT22;66447;35.844;14.468;2023-04-28T22:24:11;14.85;118.99
76750;DHT22;66447;35.844;14.468;2023-04-28T22:39:14;14.74;118.99
76750;DHT22;66447;35.844;14.468;2023-04-28T22:54:15;14.68;118.99
76750;DHT22;66447;35.844;14.468;2023-04-28T23:09:16;14.84;118.99
76750;DHT22;66447;35.844;14.468;2023-04-28T23:24:21;15.24;118.99
76750;DHT22;66447;35.844;14.468;2023-04-28T23:39:27;14.97;118.99
76750;DHT22;66447;35.844;14.468;2023-04-28T23:54:29;15.07;118.99
